»·PEaware :: N7479G KAVX-KSAN

N7479G :: KAVX-KSAN

FLIGHT INFORMATION

Flight Status: Arrived
Operator: Privately registered:
United States
More flights under this callsign
Pilot: Chuck C. (20630)
Aircraft: CESSNA 172 SKYHAWK
(C172)
More flights by this aircraft type
Origin: KAVX Catalina
United States
Destination: KSAN San Diego Intl-Lindbergh
United States
More flights between these airports :: More routes between these airports
Route: SXC V208 OCN V23 MZB
File this flight plan on PilotEdge
Remarks: I-8 ATTEMPT
Altitude:
(Current/Filed)
5,000ft
Speed:
(Current/Filed)
125kts
Departed: 29-Dec-19 03:26 PM
Arrived: 29-Dec-19 04:27 PM
Distance/Time
Traveled:
74nm/1:01
Distance/Time
To Go:
Arrived

Flight Plot

Page will automatically refresh every two minutes.


Map Options




Map Legend


Flown Route
Filed Route
Departure Airport
Arrival Airport
Navaid (VOR, NDB)
Fix

Horizontal Profiles

Position Reports

Time Latitude Longitude Heading Altitude Ground
Speed
29-Dec-19 15:02 33.403367 -118.416847 0 1556ft 0kts
29-Dec-19 15:03 33.403367 -118.416847 0 1556ft 0kts
29-Dec-19 15:04 33.403367 -118.416847 0 1556ft 0kts
29-Dec-19 15:05 33.403367 -118.416847 0 1556ft 0kts
29-Dec-19 15:06 33.403367 -118.416847 0 1556ft 0kts
29-Dec-19 15:07 33.403367 -118.416847 0 1556ft 0kts
29-Dec-19 15:08 33.403367 -118.416847 0 1556ft 0kts
29-Dec-19 15:09 33.403367 -118.416847 0 1556ft 0kts
29-Dec-19 15:10 33.403367 -118.416847 0 1556ft 0kts
29-Dec-19 15:11 33.403367 -118.416847 0 1556ft 0kts
29-Dec-19 15:12 33.406537 -118.412476 56 1512ft 29kts
29-Dec-19 15:13 33.407117 -118.411515 55 1500ft 0kts
29-Dec-19 15:14 33.407117 -118.411515 55 1500ft 0kts
29-Dec-19 15:15 33.407117 -118.411515 55 1500ft 0kts
29-Dec-19 15:16 33.407117 -118.411515 55 1500ft 0kts
29-Dec-19 15:17 33.407117 -118.411515 55 1500ft 0kts
29-Dec-19 15:18 33.407117 -118.411515 55 1500ft 0kts
29-Dec-19 15:19 33.407117 -118.411515 55 1500ft 0kts
29-Dec-19 15:20 33.407117 -118.411515 55 1500ft 0kts
29-Dec-19 15:21 33.406825 -118.411987 240 1506ft 0kts
29-Dec-19 15:22 33.406572 -118.412423 233 1511ft 4kts
29-Dec-19 15:23 33.407012 -118.411693 52 1502ft 15kts
29-Dec-19 15:24 33.407295 -118.411412 345 1499ft 2kts
29-Dec-19 15:25 33.402723 -118.419766 233 1715ft 77kts
29-Dec-19 15:26 33.383569 -118.429416 151 2425ft 99kts
29-Dec-19 15:27 33.373440 -118.397031 100 3018ft 109kts
29-Dec-19 15:28 33.368710 -118.361025 106 3617ft 109kts
29-Dec-19 15:29 33.362899 -118.325456 102 4214ft 109kts
29-Dec-19 15:30 33.358176 -118.289643 103 4812ft 108kts
29-Dec-19 15:31 33.353139 -118.251794 102 5015ft 122kts
29-Dec-19 15:32 33.347858 -118.211755 102 5016ft 121kts
29-Dec-19 15:33 33.342585 -118.171754 102 5017ft 121kts
29-Dec-19 15:34 33.337324 -118.131936 102 5017ft 121kts
29-Dec-19 15:35 33.332033 -118.092008 102 5018ft 121kts
29-Dec-19 15:36 33.326729 -118.052074 102 5019ft 121kts
29-Dec-19 15:37 33.321398 -118.011924 102 5021ft 123kts
29-Dec-19 15:38 33.315922 -117.971025 102 5023ft 125kts
29-Dec-19 15:39 33.310368 -117.929526 101 5025ft 127kts
29-Dec-19 15:40 33.304734 -117.887545 101 5028ft 128kts
29-Dec-19 15:41 33.299001 -117.844940 100 5031ft 130kts
29-Dec-19 15:42 33.293205 -117.801916 100 5031ft 131kts
29-Dec-19 15:43 33.287383 -117.758839 100 5032ft 131kts
29-Dec-19 15:44 33.281505 -117.715504 99 5032ft 132kts
29-Dec-19 15:45 33.275624 -117.672263 99 5032ft 132kts
29-Dec-19 15:46 33.269721 -117.628977 99 5032ft 132kts
29-Dec-19 15:47 33.263806 -117.585726 100 5032ft 132kts
29-Dec-19 15:48 33.257818 -117.542080 100 4990ft 133kts
29-Dec-19 15:49 33.251861 -117.498723 100 4988ft 131kts
29-Dec-19 15:50 33.245940 -117.455771 100 4987ft 131kts
29-Dec-19 15:51 33.235679 -117.415397 150 4982ft 124kts
29-Dec-19 15:52 33.203632 -117.402313 164 4985ft 122kts
29-Dec-19 15:53 33.171378 -117.388470 165 4984ft 124kts
29-Dec-19 15:54 33.138776 -117.374744 165 4984ft 125kts
29-Dec-19 15:55 33.105706 -117.360836 164 4984ft 126kts
29-Dec-19 15:56 33.072378 -117.346828 165 4981ft 127kts
29-Dec-19 15:57 33.039194 -117.332893 165 4972ft 125kts
29-Dec-19 15:58 33.006139 -117.319026 164 4973ft 125kts
29-Dec-19 15:59 32.973123 -117.305186 164 4974ft 126kts
29-Dec-19 16:00 32.939891 -117.291265 164 4977ft 126kts
29-Dec-19 16:01 32.906557 -117.277312 164 4980ft 127kts
29-Dec-19 16:03 32.873175 -117.263349 164 4983ft 127kts
29-Dec-19 16:04 32.839823 -117.249411 164 4986ft 127kts
29-Dec-19 16:05 32.806301 -117.235415 164 4989ft 127kts
29-Dec-19 16:06 32.786803 -117.203451 103 4991ft 131kts
29-Dec-19 16:07 32.777901 -117.161200 103 4991ft 131kts
29-Dec-19 16:08 32.768983 -117.118996 103 4992ft 131kts
29-Dec-19 16:09 32.759979 -117.076748 103 4991ft 131kts
29-Dec-19 16:10 32.750973 -117.034678 103 4990ft 131kts
29-Dec-19 16:11 32.741994 -116.992653 103 4988ft 131kts
29-Dec-19 16:12 32.733081 -116.950561 103 4986ft 131kts
29-Dec-19 16:13 32.724274 -116.908298 103 4984ft 131kts
29-Dec-19 16:14 32.715456 -116.865941 112 4979ft 132kts
29-Dec-19 16:15 32.692187 -116.869188 241 4981ft 92kts
29-Dec-19 16:16 32.677203 -116.897266 241 4707ft 112kts
29-Dec-19 16:17 32.672011 -116.933081 273 4030ft 105kts
29-Dec-19 16:18 32.677104 -116.963900 288 3769ft 97kts
29-Dec-19 16:19 32.686898 -116.995110 289 3326ft 100kts
29-Dec-19 16:19 32.693590 -117.021553 287 3032ft 98kts
29-Dec-19 16:21 32.702406 -117.058293 287 2590ft 104kts
29-Dec-19 16:22 32.710440 -117.092037 287 2104ft 106kts
29-Dec-19 16:23 32.718745 -117.127516 285 1304ft 111kts
29-Dec-19 16:23 32.725541 -117.156855 287 488ft 104kts
29-Dec-19 16:25 32.733403 -117.188978 286 17ft 58kts
29-Dec-19 16:26 32.736321 -117.201043 285 14ft 43kts
29-Dec-19 16:26 32.736336 -117.204244 160 14ft 0kts
29-Dec-19 16:27 32.734357 -117.197311 105 14ft 40kts
29-Dec-19 16:28 32.733198 -117.191774 58 17ft 0kts
29-Dec-19 16:29 32.733776 -117.185794 106 17ft 38kts

Navigation Log

Ident Type
Flight plan parsing failed, navigation log unavailable